sensor_id;sensor_type;location;lat;lon;timestamp;pressure;altitude;pressure_sealevel;temperature;humidity
79527;BME280;68974;47.754;-3.364;2023-04-02T00:01:53;101990.66;;;10.76;72.76
79527;BME280;68974;47.754;-3.364;2023-04-02T00:04:20;101996.16;;;10.76;72.91
79527;BME280;68974;47.754;-3.364;2023-04-02T00:06:48;102003.16;;;10.67;73.14
79527;BME280;68974;47.754;-3.364;2023-04-02T00:09:24;102016.00;;;10.61;73.85
79527;BME280;68974;47.754;-3.364;2023-04-02T00:11:53;102008.34;;;10.63;73.90
79527;BME280;68974;47.754;-3.364;2023-04-02T00:14:31;102013.50;;;10.60;74.27
79527;BME280;68974;47.754;-3.364;2023-04-02T00:17:03;102018.50;;;10.63;73.85
79527;BME280;68974;47.754;-3.364;2023-04-02T00:21:58;102014.00;;;10.57;73.86
79527;BME280;68974;47.754;-3.364;2023-04-02T00:24:24;102011.69;;;10.49;74.35
79527;BME280;68974;47.754;-3.364;2023-04-02T00:26:51;102013.81;;;10.47;74.44
79527;BME280;68974;47.754;-3.364;2023-04-02T00:29:18;102012.50;;;10.32;74.89
79527;BME280;68974;47.754;-3.364;2023-04-02T00:31:46;102020.34;;;10.40;74.66
79527;BME280;68974;47.754;-3.364;2023-04-02T00:34:31;102016.66;;;10.35;74.78
79527;BME280;68974;47.754;-3.364;2023-04-02T00:36:58;102024.72;;;10.41;74.85
79527;BME280;68974;47.754;-3.364;2023-04-02T00:39:25;102034.63;;;10.42;75.19
79527;BME280;68974;47.754;-3.364;2023-04-02T00:41:53;102029.47;;;10.46;74.92
79527;BME280;68974;47.754;-3.364;2023-04-02T00:44:31;102032.97;;;10.41;74.86
79527;BME280;68974;47.754;-3.364;2023-04-02T00:47:06;102028.00;;;10.55;74.26
79527;BME280;68974;47.754;-3.364;2023-04-02T00:49:39;102029.31;;;10.69;74.00
79527;BME280;68974;47.754;-3.364;2023-04-02T00:52:08;102031.16;;;10.64;74.12
79527;BME280;68974;47.754;-3.364;2023-04-02T00:54:44;102029.66;;;10.73;73.88
79527;BME280;68974;47.754;-3.364;2023-04-02T00:57:17;102026.16;;;10.77;74.75
79527;BME280;68974;47.754;-3.364;2023-04-02T01:02:29;102027.66;;;10.68;75.49
79527;BME280;68974;47.754;-3.364;2023-04-02T01:04:59;102023.47;;;10.66;75.98
79527;BME280;68974;47.754;-3.364;2023-04-02T01:15:16;102044.31;;;10.78;75.31
79527;BME280;68974;47.754;-3.364;2023-04-02T01:21:07;102048.47;;;10.81;75.67
79527;BME280;68974;47.754;-3.364;2023-04-02T01:23:56;102025.22;;;10.72;75.75
79527;BME280;68974;47.754;-3.364;2023-04-02T01:26:34;102045.53;;;10.71;75.98
79527;BME280;68974;47.754;-3.364;2023-04-02T01:29:11;102041.06;;;10.81;75.59
79527;BME280;68974;47.754;-3.364;2023-04-02T01:31:38;102049.13;;;10.71;75.87
79527;BME280;68974;47.754;-3.364;2023-04-02T01:34:06;102047.13;;;10.67;76.25
79527;BME280;68974;47.754;-3.364;2023-04-02T01:44:50;102054.31;;;10.84;75.20
79527;BME280;68974;47.754;-3.364;2023-04-02T01:47:20;102063.38;;;10.85;75.45
79527;BME280;68974;47.754;-3.364;2023-04-02T01:49:46;102064.94;;;10.81;75.16
79527;BME280;68974;47.754;-3.364;2023-04-02T01:52:17;102071.78;;;10.78;75.26
79527;BME280;68974;47.754;-3.364;2023-04-02T01:54:45;102074.94;;;10.87;74.22
79527;BME280;68974;47.754;-3.364;2023-04-02T01:57:12;102077.47;;;10.89;74.12
79527;BME280;68974;47.754;-3.364;2023-04-02T01:59:38;102083.13;;;10.82;74.83
79527;BME280;68974;47.754;-3.364;2023-04-02T02:02:05;102079.22;;;10.78;75.05
79527;BME280;68974;47.754;-3.364;2023-04-02T02:04:33;102074.13;;;10.86;74.52
79527;BME280;68974;47.754;-3.364;2023-04-02T02:06:59;102073.78;;;10.83;74.06
79527;BME280;68974;47.754;-3.364;2023-04-02T02:09:31;102072.13;;;10.82;74.23
79527;BME280;68974;47.754;-3.364;2023-04-02T02:11:59;102075.47;;;10.84;73.15
79527;BME280;68974;47.754;-3.364;2023-04-02T02:14:28;102082.59;;;10.85;73.23
79527;BME280;68974;47.754;-3.364;2023-04-02T02:16:55;102080.13;;;10.83;72.96
79527;BME280;68974;47.754;-3.364;2023-04-02T02:19:32;102081.97;;;10.78;72.00
79527;BME280;68974;47.754;-3.364;2023-04-02T02:24:55;102073.63;;;10.73;72.17
79527;BME280;68974;47.754;-3.364;2023-04-02T02:32:55;102099.78;;;10.59;71.78
79527;BME280;68974;47.754;-3.364;2023-04-02T02:35:28;102088.94;;;10.69;71.68
79527;BME280;68974;47.754;-3.364;2023-04-02T02:40:42;102090.28;;;10.83;70.69
79527;BME280;68974;47.754;-3.364;2023-04-02T02:43:12;102108.00;;;10.75;71.21
79527;BME280;68974;47.754;-3.364;2023-04-02T02:45:40;102101.94;;;10.73;71.73
79527;BME280;68974;47.754;-3.364;2023-04-02T02:48:11;102108.59;;;10.77;71.51
79527;BME280;68974;47.754;-3.364;2023-04-02T02:50:39;102113.78;;;10.74;71.13
79527;BME280;68974;47.754;-3.364;2023-04-02T02:53:19;102106.94;;;10.76;71.49
79527;BME280;68974;47.754;-3.364;2023-04-02T02:55:47;102112.75;;;10.63;71.86
79527;BME280;68974;47.754;-3.364;2023-04-02T02:58:20;102111.44;;;10.82;71.03
79527;BME280;68974;47.754;-3.364;2023-04-02T03:00:48;102115.44;;;10.75;71.58
79527;BME280;68974;47.754;-3.364;2023-04-02T03:03:17;102116.25;;;10.75;71.02
79527;BME280;68974;47.754;-3.364;2023-04-02T03:05:52;102116.00;;;10.77;70.91
79527;BME280;68974;47.754;-3.364;2023-04-02T03:08:27;102118.94;;;10.87;70.83
79527;BME280;68974;47.754;-3.364;2023-04-02T03:11:15;102127.09;;;10.82;70.65
79527;BME280;68974;47.754;-3.364;2023-04-02T03:13:47;102130.75;;;10.88;70.47
79527;BME280;68974;47.754;-3.364;2023-04-02T03:16:35;102133.34;;;10.77;70.99
79527;BME280;68974;47.754;-3.364;2023-04-02T03:19:14;102135.41;;;10.70;71.59
79527;BME280;68974;47.754;-3.364;2023-04-02T03:21:51;102137.41;;;10.58;72.19
79527;BME280;68974;47.754;-3.364;2023-04-02T03:24:31;102142.47;;;10.66;72.12
79527;BME280;68974;47.754;-3.364;2023-04-02T03:27:19;102138.25;;;10.59;72.67
79527;BME280;68974;47.754;-3.364;2023-04-02T03:30:04;102131.94;;;10.75;72.06
79527;BME280;68974;47.754;-3.364;2023-04-02T03:32:36;102145.69;;;10.75;72.51
79527;BME280;68974;47.754;-3.364;2023-04-02T03:35:37;102151.09;;;10.70;72.28
79527;BME280;68974;47.754;-3.364;2023-04-02T03:38:45;102148.38;;;10.58;72.62
79527;BME280;68974;47.754;-3.364;2023-04-02T03:41:16;102151.38;;;10.57;73.01
79527;BME280;68974;47.754;-3.364;2023-04-02T03:43:45;102156.31;;;10.55;73.00
79527;BME280;68974;47.754;-3.364;2023-04-02T03:48:50;102160.88;;;10.66;72.56
79527;BME280;68974;47.754;-3.364;2023-04-02T03:54:14;102172.53;;;10.56;73.09
79527;BME280;68974;47.754;-3.364;2023-04-02T03:56:42;102169.75;;;10.39;73.34
79527;BME280;68974;47.754;-3.364;2023-04-02T03:59:19;102172.81;;;10.43;73.48
79527;BME280;68974;47.754;-3.364;2023-04-02T04:01:54;102179.16;;;10.43;73.49
79527;BME280;68974;47.754;-3.364;2023-04-02T04:04:25;102180.47;;;10.41;73.50
79527;BME280;68974;47.754;-3.364;2023-04-02T04:06:52;102188.78;;;10.29;74.19
79527;BME280;68974;47.754;-3.364;2023-04-02T04:09:32;102190.78;;;10.34;74.20
79527;BME280;68974;47.754;-3.364;2023-04-02T04:12:25;102194.38;;;10.23;74.82
79527;BME280;68974;47.754;-3.364;2023-04-02T04:14:59;102189.41;;;10.20;74.64
79527;BME280;68974;47.754;-3.364;2023-04-02T04:17:35;102198.34;;;10.15;75.07
79527;BME280;68974;47.754;-3.364;2023-04-02T04:20:21;102197.78;;;10.02;75.06
79527;BME280;68974;47.754;-3.364;2023-04-02T04:22:48;102203.13;;;10.08;75.45
79527;BME280;68974;47.754;-3.364;2023-04-02T04:25:25;102206.47;;;10.10;74.71
79527;BME280;68974;47.754;-3.364;2023-04-02T04:28:18;102205.03;;;10.08;74.18
79527;BME280;68974;47.754;-3.364;2023-04-02T04:30:55;102205.97;;;10.13;73.38
79527;BME280;68974;47.754;-3.364;2023-04-02T04:33:27;102199.69;;;10.01;73.60
79527;BME280;68974;47.754;-3.364;2023-04-02T04:35:59;102196.94;;;10.01;73.63
79527;BME280;68974;47.754;-3.364;2023-04-02T04:38:32;102214.16;;;9.85;73.66
79527;BME280;68974;47.754;-3.364;2023-04-02T04:41:12;102202.66;;;9.88;73.79
79527;BME280;68974;47.754;-3.364;2023-04-02T04:43:51;102201.25;;;9.74;73.78
79527;BME280;68974;47.754;-3.364;2023-04-02T04:46:24;102208.44;;;9.75;74.00
79527;BME280;68974;47.754;-3.364;2023-04-02T04:48:57;102210.81;;;9.60;74.10
79527;BME280;68974;47.754;-3.364;2023-04-02T04:51:47;102215.94;;;9.68;74.51
79527;BME280;68974;47.754;-3.364;2023-04-02T04:54:16;102218.59;;;9.63;74.32
79527;BME280;68974;47.754;-3.364;2023-04-02T04:56:50;102221.44;;;9.56;74.56
79527;BME280;68974;47.754;-3.364;2023-04-02T04:59:26;102228.34;;;9.47;74.90
79527;BME280;68974;47.754;-3.364;2023-04-02T05:02:09;102235.72;;;9.58;74.42
79527;BME280;68974;47.754;-3.364;2023-04-02T05:04:38;102248.03;;;9.55;74.77
79527;BME280;68974;47.754;-3.364;2023-04-02T05:07:12;102247.44;;;9.65;74.36
79527;BME280;68974;47.754;-3.364;2023-04-02T05:09:44;102259.63;;;9.81;73.43
79527;BME280;68974;47.754;-3.364;2023-04-02T05:14:53;102256.38;;;9.84;72.93
79527;BME280;68974;47.754;-3.364;2023-04-02T05:17:34;102268.19;;;9.84;72.94
79527;BME280;68974;47.754;-3.364;2023-04-02T05:20:13;102256.13;;;9.74;72.73
79527;BME280;68974;47.754;-3.364;2023-04-02T05:25:21;102271.16;;;9.83;72.72
79527;BME280;68974;47.754;-3.364;2023-04-02T05:28:09;102281.19;;;9.89;72.87
79527;BME280;68974;47.754;-3.364;2023-04-02T05:33:31;102294.34;;;9.87;72.95
79527;BME280;68974;47.754;-3.364;2023-04-02T05:36:01;102297.56;;;9.95;72.91
79527;BME280;68974;47.754;-3.364;2023-04-02T05:38:31;102303.50;;;9.92;73.01
79527;BME280;68974;47.754;-3.364;2023-04-02T05:41:46;102303.28;;;9.94;72.92
79527;BME280;68974;47.754;-3.364;2023-04-02T05:43:50;102308.88;;;9.99;72.08
79527;BME280;68974;47.754;-3.364;2023-04-02T05:46:25;102303.28;;;9.94;72.14
79527;BME280;68974;47.754;-3.364;2023-04-02T05:48:57;102302.91;;;10.02;71.63
79527;BME280;68974;47.754;-3.364;2023-04-02T05:51:29;102310.56;;;10.00;71.96
79527;BME280;68974;47.754;-3.364;2023-04-02T05:54:00;102305.66;;;10.02;72.09
79527;BME280;68974;47.754;-3.364;2023-04-02T05:56:33;102307.31;;;10.03;71.91
79527;BME280;68974;47.754;-3.364;2023-04-02T05:59:15;102309.38;;;9.96;71.80
79527;BME280;68974;47.754;-3.364;2023-04-02T06:01:50;102308.06;;;9.98;70.60
79527;BME280;68974;47.754;-3.364;2023-04-02T06:07:10;102312.09;;;10.08;70.19
79527;BME280;68974;47.754;-3.364;2023-04-02T06:09:49;102306.97;;;9.99;70.15
79527;BME280;68974;47.754;-3.364;2023-04-02T06:14:43;102301.59;;;9.93;69.91
79527;BME280;68974;47.754;-3.364;2023-04-02T06:17:13;102306.75;;;9.89;69.54
79527;BME280;68974;47.754;-3.364;2023-04-02T06:19:40;102315.69;;;9.85;68.87
79527;BME280;68974;47.754;-3.364;2023-04-02T06:22:09;102314.13;;;9.89;68.89
79527;BME280;68974;47.754;-3.364;2023-04-02T06:24:40;102313.78;;;9.85;68.77
79527;BME280;68974;47.754;-3.364;2023-04-02T06:27:07;102312.69;;;9.75;69.45
79527;BME280;68974;47.754;-3.364;2023-04-02T06:29:38;102324.03;;;9.67;69.08
79527;BME280;68974;47.754;-3.364;2023-04-02T06:32:08;102336.56;;;9.74;69.33
79527;BME280;68974;47.754;-3.364;2023-04-02T06:34:36;102341.47;;;9.72;69.37
79527;BME280;68974;47.754;-3.364;2023-04-02T06:37:20;102348.00;;;9.83;69.09
79527;BME280;68974;47.754;-3.364;2023-04-02T06:39:47;102339.41;;;9.68;69.36
79527;BME280;68974;47.754;-3.364;2023-04-02T06:42:18;102342.75;;;9.70;69.53
79527;BME280;68974;47.754;-3.364;2023-04-02T06:44:44;102344.69;;;9.81;69.65
79527;BME280;68974;47.754;-3.364;2023-04-02T06:49:48;102349.69;;;10.07;68.81
79527;BME280;68974;47.754;-3.364;2023-04-02T06:52:28;102349.59;;;10.14;68.52
79527;BME280;68974;47.754;-3.364;2023-04-02T06:54:55;102350.09;;;10.22;68.36
79527;BME280;68974;47.754;-3.364;2023-04-02T06:57:21;102348.66;;;10.20;68.69
79527;BME280;68974;47.754;-3.364;2023-04-02T06:59:46;102357.38;;;10.28;67.61
79527;BME280;68974;47.754;-3.364;2023-04-02T07:04:50;102357.59;;;10.38;67.83
79527;BME280;68974;47.754;-3.364;2023-04-02T07:07:16;102364.06;;;10.44;67.13
79527;BME280;68974;47.754;-3.364;2023-04-02T07:09:41;102365.72;;;10.33;67.61
79527;BME280;68974;47.754;-3.364;2023-04-02T07:12:11;102362.16;;;10.45;67.71
79527;BME280;68974;47.754;-3.364;2023-04-02T07:14:36;102364.50;;;10.53;67.47
79527;BME280;68974;47.754;-3.364;2023-04-02T07:17:01;102371.56;;;10.49;67.40
79527;BME280;68974;47.754;-3.364;2023-04-02T07:19:27;102374.06;;;10.62;67.25
79527;BME280;68974;47.754;-3.364;2023-04-02T07:21:52;102371.69;;;10.54;67.38
79527;BME280;68974;47.754;-3.364;2023-04-02T07:24:18;102371.69;;;10.54;67.39
79527;BME280;68974;47.754;-3.364;2023-04-02T07:26:43;102381.31;;;10.79;66.82
79527;BME280;68974;47.754;-3.364;2023-04-02T07:29:13;102377.41;;;10.64;67.30
79527;BME280;68974;47.754;-3.364;2023-04-02T07:31:39;102386.66;;;10.86;66.65
79527;BME280;68974;47.754;-3.364;2023-04-02T07:34:07;102389.06;;;10.94;66.67
79527;BME280;68974;47.754;-3.364;2023-04-02T07:36:33;102386.22;;;10.77;66.92
79527;BME280;68974;47.754;-3.364;2023-04-02T07:38:58;102393.63;;;10.77;67.37
79527;BME280;68974;47.754;-3.364;2023-04-02T07:41:24;102388.84;;;10.84;67.17
79527;BME280;68974;47.754;-3.364;2023-04-02T07:43:50;102400.28;;;10.93;67.01
79527;BME280;68974;47.754;-3.364;2023-04-02T07:46:16;102406.72;;;10.98;66.96
79527;BME280;68974;47.754;-3.364;2023-04-02T07:48:43;102411.59;;;11.08;66.74
79527;BME280;68974;47.754;-3.364;2023-04-02T07:51:18;102408.44;;;11.16;66.18
79527;BME280;68974;47.754;-3.364;2023-04-02T07:53:43;102411.53;;;11.19;66.06
79527;BME280;68974;47.754;-3.364;2023-04-02T07:56:12;102404.09;;;11.32;65.93
79527;BME280;68974;47.754;-3.364;2023-04-02T07:58:38;102405.06;;;11.25;65.94
79527;BME280;68974;47.754;-3.364;2023-04-02T08:01:04;102410.88;;;11.41;66.09
79527;BME280;68974;47.754;-3.364;2023-04-02T08:03:29;102399.81;;;12.14;63.52
79527;BME280;68974;47.754;-3.364;2023-04-02T08:05:56;102406.50;;;13.17;59.26
79527;BME280;68974;47.754;-3.364;2023-04-02T08:08:24;102396.09;;;13.77;57.66
79527;BME280;68974;47.754;-3.364;2023-04-02T08:10:50;102402.91;;;13.97;57.30
79527;BME280;68974;47.754;-3.364;2023-04-02T08:13:16;102408.50;;;14.07;56.94
79527;BME280;68974;47.754;-3.364;2023-04-02T08:15:42;102411.53;;;14.05;56.66
79527;BME280;68974;47.754;-3.364;2023-04-02T08:18:09;102406.31;;;14.09;56.65
79527;BME280;68974;47.754;-3.364;2023-04-02T08:20:34;102411.34;;;14.17;58.51
79527;BME280;68974;47.754;-3.364;2023-04-02T08:22:59;102406.72;;;14.64;54.75
79527;BME280;68974;47.754;-3.364;2023-04-02T08:25:26;102423.19;;;14.44;57.86
79527;BME280;68974;47.754;-3.364;2023-04-02T08:27:51;102423.53;;;14.58;55.72
79527;BME280;68974;47.754;-3.364;2023-04-02T08:30:18;102432.31;;;13.81;57.33
79527;BME280;68974;47.754;-3.364;2023-04-02T08:32:43;102436.50;;;13.35;58.66
79527;BME280;68974;47.754;-3.364;2023-04-02T08:35:11;102446.81;;;12.79;59.25
79527;BME280;68974;47.754;-3.364;2023-04-02T08:37:37;102451.31;;;13.24;58.52
79527;BME280;68974;47.754;-3.364;2023-04-02T08:40:03;102455.09;;;13.18;57.62
79527;BME280;68974;47.754;-3.364;2023-04-02T08:46:28;102463.69;;;12.66;59.28
79527;BME280;68974;47.754;-3.364;2023-04-02T08:48:34;102466.59;;;12.38;59.94
79527;BME280;68974;47.754;-3.364;2023-04-02T08:51:02;102469.38;;;13.15;58.35
79527;BME280;68974;47.754;-3.364;2023-04-02T08:53:33;102471.84;;;12.94;57.21
79527;BME280;68974;47.754;-3.364;2023-04-02T08:56:12;102478.84;;;12.47;59.03
79527;BME280;68974;47.754;-3.364;2023-04-02T08:58:50;102490.94;;;12.63;59.30
79527;BME280;68974;47.754;-3.364;2023-04-02T09:03:59;102486.16;;;12.36;59.15
79527;BME280;68974;47.754;-3.364;2023-04-02T09:06:27;102489.97;;;12.19;60.68
79527;BME280;68974;47.754;-3.364;2023-04-02T09:08:54;102480.75;;;12.13;61.27
79527;BME280;68974;47.754;-3.364;2023-04-02T09:11:32;102479.53;;;12.21;59.63
79527;BME280;68974;47.754;-3.364;2023-04-02T09:14:00;102491.63;;;12.20;59.44
79527;BME280;68974;47.754;-3.364;2023-04-02T09:16:40;102483.34;;;13.08;59.14
79527;BME280;68974;47.754;-3.364;2023-04-02T09:19:17;102487.41;;;13.44;56.06
79527;BME280;68974;47.754;-3.364;2023-04-02T09:22:08;102495.03;;;13.59;55.15
79527;BME280;68974;47.754;-3.364;2023-04-02T09:24:32;102485.69;;;13.38;55.93
79527;BME280;68974;47.754;-3.364;2023-04-02T09:26:58;102498.66;;;13.37;55.03
79527;BME280;68974;47.754;-3.364;2023-04-02T09:29:42;102495.38;;;13.40;55.21
79527;BME280;68974;47.754;-3.364;2023-04-02T09:34:49;102484.19;;;16.04;49.14
79527;BME280;68974;47.754;-3.364;2023-04-02T09:37:30;102488.97;;;17.49;44.23
79527;BME280;68974;47.754;-3.364;2023-04-02T09:40:31;102484.03;;;18.24;42.43
79527;BME280;68974;47.754;-3.364;2023-04-02T09:43:07;102482.69;;;18.55;40.44
79527;BME280;68974;47.754;-3.364;2023-04-02T09:45:34;102482.94;;;19.77;37.78
79527;BME280;68974;47.754;-3.364;2023-04-02T09:47:59;102481.16;;;20.19;36.46
79527;BME280;68974;47.754;-3.364;2023-04-02T09:50:32;102476.41;;;20.38;35.47
79527;BME280;68974;47.754;-3.364;2023-04-02T09:52:58;102485.41;;;19.36;38.38
79527;BME280;68974;47.754;-3.364;2023-04-02T09:55:40;102494.25;;;17.99;39.81
79527;BME280;68974;47.754;-3.364;2023-04-02T09:58:15;102496.41;;;16.28;42.87
79527;BME280;68974;47.754;-3.364;2023-04-02T10:00:52;102503.00;;;15.72;44.08
79527;BME280;68974;47.754;-3.364;2023-04-02T10:03:27;102505.38;;;15.48;45.90
79527;BME280;68974;47.754;-3.364;2023-04-02T10:06:23;102497.81;;;16.26;44.80
79527;BME280;68974;47.754;-3.364;2023-04-02T10:08:49;102502.50;;;16.20;43.13
79527;BME280;68974;47.754;-3.364;2023-04-02T10:11:30;102509.16;;;16.19;44.35
79527;BME280;68974;47.754;-3.364;2023-04-02T10:14:09;102512.50;;;16.11;45.31
79527;BME280;68974;47.754;-3.364;2023-04-02T10:16:40;102512.00;;;15.47;46.09
79527;BME280;68974;47.754;-3.364;2023-04-02T10:21:47;102522.31;;;15.51;46.23
79527;BME280;68974;47.754;-3.364;2023-04-02T10:24:17;102527.91;;;15.72;46.44
79527;BME280;68974;47.754;-3.364;2023-04-02T10:32:20;102523.59;;;16.67;41.71
79527;BME280;68974;47.754;-3.364;2023-04-02T10:35:00;102520.28;;;17.64;40.75
79527;BME280;68974;47.754;-3.364;2023-04-02T10:46:05;102514.25;;;22.13;32.40
79527;BME280;68974;47.754;-3.364;2023-04-02T10:56:47;102534.34;;;19.24;35.65
79527;BME280;68974;47.754;-3.364;2023-04-02T10:59:17;102544.84;;;18.01;38.89
79527;BME280;68974;47.754;-3.364;2023-04-02T11:01:45;102547.72;;;16.97;41.33
79527;BME280;68974;47.754;-3.364;2023-04-02T11:06:43;102544.88;;;15.90;44.33
79527;BME280;68974;47.754;-3.364;2023-04-02T11:09:20;102547.88;;;15.79;45.26
79527;BME280;68974;47.754;-3.364;2023-04-02T11:11:51;102551.56;;;16.10;43.26
79527;BME280;68974;47.754;-3.364;2023-04-02T11:14:29;102552.13;;;16.12;42.83
79527;BME280;68974;47.754;-3.364;2023-04-02T11:16:56;102549.66;;;16.25;42.11
79527;BME280;68974;47.754;-3.364;2023-04-02T11:19:31;102557.41;;;16.28;42.86
79527;BME280;68974;47.754;-3.364;2023-04-02T11:22:16;102550.69;;;15.89;43.99
79527;BME280;68974;47.754;-3.364;2023-04-02T11:24:46;102554.94;;;16.27;43.01
79527;BME280;68974;47.754;-3.364;2023-04-02T11:27:31;102553.56;;;16.44;40.87
79527;BME280;68974;47.754;-3.364;2023-04-02T11:32:39;102554.66;;;16.28;41.22
79527;BME280;68974;47.754;-3.364;2023-04-02T11:37:57;102553.94;;;15.66;42.86
79527;BME280;68974;47.754;-3.364;2023-04-02T11:48:50;102570.78;;;14.70;46.98
79527;BME280;68974;47.754;-3.364;2023-04-02T11:53:48;102580.34;;;14.30;46.19
79527;BME280;68974;47.754;-3.364;2023-04-02T12:04:39;102587.13;;;14.18;46.85
79527;BME280;68974;47.754;-3.364;2023-04-02T12:10:31;102576.00;;;14.66;45.62
79527;BME280;68974;47.754;-3.364;2023-04-02T12:12:58;102576.66;;;14.79;47.91
79527;BME280;68974;47.754;-3.364;2023-04-02T12:18:04;102586.59;;;14.74;43.32
79527;BME280;68974;47.754;-3.364;2023-04-02T12:20:34;102587.88;;;14.67;43.86
79527;BME280;68974;47.754;-3.364;2023-04-02T12:23:00;102590.81;;;14.50;44.50
79527;BME280;68974;47.754;-3.364;2023-04-02T12:25:34;102591.31;;;14.47;44.73
79527;BME280;68974;47.754;-3.364;2023-04-02T12:30:30;102609.38;;;14.33;45.37
79527;BME280;68974;47.754;-3.364;2023-04-02T12:32:55;102602.50;;;14.09;46.66
79527;BME280;68974;47.754;-3.364;2023-04-02T12:35:34;102599.28;;;14.17;46.54
79527;BME280;68974;47.754;-3.364;2023-04-02T12:38:02;102611.81;;;14.03;47.02
79527;BME280;68974;47.754;-3.364;2023-04-02T12:40:28;102607.78;;;14.10;46.45
79527;BME280;68974;47.754;-3.364;2023-04-02T12:42:53;102605.22;;;14.04;47.57
79527;BME280;68974;47.754;-3.364;2023-04-02T12:45:27;102610.28;;;14.12;47.27
79527;BME280;68974;47.754;-3.364;2023-04-02T12:47:53;102605.56;;;14.12;48.12
79527;BME280;68974;47.754;-3.364;2023-04-02T12:50:19;102609.13;;;14.08;46.74
79527;BME280;68974;47.754;-3.364;2023-04-02T12:52:49;102609.00;;;13.98;47.12
79527;BME280;68974;47.754;-3.364;2023-04-02T12:55:20;102609.41;;;13.84;47.03
79527;BME280;68974;47.754;-3.364;2023-04-02T12:57:47;102618.28;;;13.86;48.08
79527;BME280;68974;47.754;-3.364;2023-04-02T13:05:53;102622.53;;;13.72;47.17
79527;BME280;68974;47.754;-3.364;2023-04-02T13:08:40;102617.22;;;13.49;48.57
79527;BME280;68974;47.754;-3.364;2023-04-02T13:11:06;102614.16;;;13.67;47.86
79527;BME280;68974;47.754;-3.364;2023-04-02T13:13:34;102620.78;;;13.66;47.58
79527;BME280;68974;47.754;-3.364;2023-04-02T13:18:36;102624.56;;;13.60;48.59
79527;BME280;68974;47.754;-3.364;2023-04-02T13:23:45;102630.59;;;13.57;48.69
79527;BME280;68974;47.754;-3.364;2023-04-02T13:26:17;102624.00;;;13.58;49.78
79527;BME280;68974;47.754;-3.364;2023-04-02T13:31:25;102624.28;;;13.40;50.61
79527;BME280;68974;47.754;-3.364;2023-04-02T13:33:51;102630.22;;;13.49;49.97
79527;BME280;68974;47.754;-3.364;2023-04-02T13:36:16;102627.94;;;13.45;50.84
79527;BME280;68974;47.754;-3.364;2023-04-02T13:38:42;102632.91;;;13.43;50.15
79527;BME280;68974;47.754;-3.364;2023-04-02T13:41:26;102627.78;;;13.52;49.36
79527;BME280;68974;47.754;-3.364;2023-04-02T13:43:53;102629.59;;;13.63;49.80
79527;BME280;68974;47.754;-3.364;2023-04-02T13:46:25;102632.53;;;13.78;48.37
79527;BME280;68974;47.754;-3.364;2023-04-02T13:48:52;102633.03;;;13.75;49.43
79527;BME280;68974;47.754;-3.364;2023-04-02T13:51:19;102633.81;;;13.71;49.34
79527;BME280;68974;47.754;-3.364;2023-04-02T13:53:55;102638.75;;;13.91;48.87
79527;BME280;68974;47.754;-3.364;2023-04-02T13:56:21;102637.34;;;13.88;48.63
79527;BME280;68974;47.754;-3.364;2023-04-02T13:58:49;102635.34;;;13.83;49.40
79527;BME280;68974;47.754;-3.364;2023-04-02T14:01:15;102632.66;;;13.88;49.37
79527;BME280;68974;47.754;-3.364;2023-04-02T14:03:41;102632.78;;;13.99;48.09
79527;BME280;68974;47.754;-3.364;2023-04-02T14:09:04;102629.47;;;13.97;48.33
79527;BME280;68974;47.754;-3.364;2023-04-02T14:19:12;102616.78;;;13.57;49.33
79527;BME280;68974;47.754;-3.364;2023-04-02T14:22:04;102620.78;;;13.66;49.85
79527;BME280;68974;47.754;-3.364;2023-04-02T14:28:01;102622.84;;;13.76;49.59
79527;BME280;68974;47.754;-3.364;2023-04-02T14:38:59;102623.00;;;13.69;49.72
79527;BME280;68974;47.754;-3.364;2023-04-02T14:44:02;102625.56;;;13.98;49.11
79527;BME280;68974;47.754;-3.364;2023-04-02T14:46:30;102624.00;;;14.02;48.72
79527;BME280;68974;47.754;-3.364;2023-04-02T14:48:58;102624.09;;;14.12;49.63
79527;BME280;68974;47.754;-3.364;2023-04-02T14:51:39;102624.16;;;14.17;49.47
79527;BME280;68974;47.754;-3.364;2023-04-02T14:54:10;102634.81;;;14.30;49.04
79527;BME280;68974;47.754;-3.364;2023-04-02T14:56:48;102628.97;;;14.26;48.53
79527;BME280;68974;47.754;-3.364;2023-04-02T14:59:31;102633.53;;;14.16;47.45
79527;BME280;68974;47.754;-3.364;2023-04-02T15:02:27;102638.66;;;14.02;48.26
79527;BME280;68974;47.754;-3.364;2023-04-02T15:05:01;102637.34;;;13.88;47.97
79527;BME280;68974;47.754;-3.364;2023-04-02T15:07:35;102628.31;;;13.93;47.85
79527;BME280;68974;47.754;-3.364;2023-04-02T15:12:47;102636.00;;;13.91;48.66
79527;BME280;68974;47.754;-3.364;2023-04-02T15:18:04;102637.03;;;13.84;48.61
79527;BME280;68974;47.754;-3.364;2023-04-02T15:20:39;102634.84;;;13.86;49.34
79527;BME280;68974;47.754;-3.364;2023-04-02T15:23:22;102632.91;;;13.65;49.12
79527;BME280;68974;47.754;-3.364;2023-04-02T15:28:56;102631.91;;;13.71;49.35
79527;BME280;68974;47.754;-3.364;2023-04-02T15:31:20;102626.88;;;13.68;50.33
79527;BME280;68974;47.754;-3.364;2023-04-02T15:44:41;102635.56;;;13.77;49.40
79527;BME280;68974;47.754;-3.364;2023-04-02T15:49:46;102637.16;;;13.73;49.50
79527;BME280;68974;47.754;-3.364;2023-04-02T15:52:35;102643.19;;;13.48;49.35
79527;BME280;68974;47.754;-3.364;2023-04-02T16:06:33;102639.88;;;13.13;49.92
79527;BME280;68974;47.754;-3.364;2023-04-02T16:09:19;102643.47;;;13.13;50.44
79527;BME280;68974;47.754;-3.364;2023-04-02T16:11:50;102645.63;;;12.94;49.80
79527;BME280;68974;47.754;-3.364;2023-04-02T16:14:28;102642.78;;;12.89;51.37
79527;BME280;68974;47.754;-3.364;2023-04-02T16:16:58;102649.22;;;12.78;51.90
79527;BME280;68974;47.754;-3.364;2023-04-02T16:22:20;102647.09;;;12.85;51.38
79527;BME280;68974;47.754;-3.364;2023-04-02T16:24:52;102642.69;;;12.84;51.91
79527;BME280;68974;47.754;-3.364;2023-04-02T16:27:39;102645.69;;;12.83;51.49
79527;BME280;68974;47.754;-3.364;2023-04-02T16:32:58;102646.38;;;12.90;51.94